Time;durP1;ratioP1;P1;durP2;ratioP2;P2;SDS_P1;SDS_P2;PMS_P1;PMS_P2;Temp;Humidity;BMP_temperature;BMP_pressure;BME280_temperature;BME280_humidity;BME280_pressure;Samples;Min_cycle;Max_cycle;Signal;HPM_P1;HPM_P2
2024/03/02 00:01:26;;;;;;;56.40;38.50;;;;;;;6.74;91.40;99795.36;104631;1254;95989;-70
2024/03/02 00:03:53;;;;;;;55.30;38.20;;;;;;;6.73;91.92;99792.80;103268;1254;138290;-70
2024/03/02 00:06:23;;;;;;;57.70;38.30;;;;;;;6.70;91.60;99781.80;103217;1254;97887;-71
2024/03/02 00:08:51;;;;;;;54.40;37.10;;;;;;;6.67;92.21;99784.99;103094;1254;138242;-73
2024/03/02 00:11:18;;;;;;;55.10;38.00;;;;;;;6.66;91.98;99778.96;103210;1254;106082;-75
2024/03/02 00:13:46;;;;;;;58.30;39.50;;;;;;;6.64;92.03;99774.33;103338;1254;97787;-71
2024/03/02 00:16:13;;;;;;;60.90;39.50;;;;;;;6.63;91.89;99774.16;103284;1257;108378;-70
2024/03/02 00:18:40;;;;;;;57.60;38.60;;;;;;;6.62;91.81;99771.25;103415;1257;97811;-70
2024/03/02 00:21:10;;;;;;;56.60;38.90;;;;;;;6.61;92.16;99774.05;103221;1255;138202;-70
2024/03/02 00:23:38;;;;;;;56.00;39.30;;;;;;;6.59;92.10;99776.17;103346;1257;107150;-71
2024/03/02 00:26:08;;;;;;;56.30;37.90;;;;;;;6.57;92.14;99776.73;103219;1253;139736;-69
2024/03/02 00:28:37;;;;;;;58.00;38.80;;;;;;;6.55;92.18;99776.27;103604;1253;108249;-73
2024/03/02 00:31:07;;;;;;;56.80;38.50;;;;;;;6.54;92.36;99770.95;103284;1257;97819;-73
2024/03/02 00:33:36;;;;;;;55.80;39.10;;;;;;;6.50;92.73;99773.96;103514;1253;139081;-71
2024/03/02 00:36:04;;;;;;;58.00;38.90;;;;;;;6.48;92.76;99771.09;103554;1257;107452;-72
2024/03/02 00:38:31;;;;;;;53.90;37.90;;;;;;;6.46;92.80;99768.70;103441;1253;138498;-69
2024/03/02 00:40:59;;;;;;;54.60;37.80;;;;;;;6.45;92.78;99770.80;103370;1253;107751;-73
2024/03/02 00:43:45;;;;;;;55.10;37.90;;;;;;;6.44;92.81;99763.23;103428;1257;97801;-71
2024/03/02 00:46:19;;;;;;;52.60;37.50;;;;;;;6.44;92.59;99764.77;103269;1253;110960;-70
2024/03/02 00:48:54;;;;;;;50.20;36.90;;;;;;;6.44;93.08;99770.82;103362;1257;106797;-70
2024/03/02 00:51:21;;;;;;;59.00;38.50;;;;;;;6.43;92.84;99774.27;103360;1254;138338;-71
2024/03/02 00:53:48;;;;;;;53.80;38.00;;;;;;;6.43;92.95;99776.90;103560;1257;107501;-71
2024/03/02 00:56:15;;;;;;;59.00;37.70;;;;;;;6.41;93.26;99778.66;103183;1254;138522;-72
2024/03/02 00:58:42;;;;;;;53.40;37.80;;;;;;;6.40;93.16;99778.34;103278;1257;111011;-73
2024/03/02 01:01:09;;;;;;;55.20;37.80;;;;;;;6.40;93.13;99778.69;103114;1254;107796;-72
2024/03/02 01:03:38;;;;;;;56.30;38.10;;;;;;;6.40;93.06;99779.05;103160;1257;138415;-71
2024/03/02 01:06:07;;;;;;;57.70;38.00;;;;;;;6.39;93.00;99776.13;103366;1253;108891;-71
2024/03/02 01:08:34;;;;;;;56.00;38.10;;;;;;;6.38;93.30;99779.42;103321;1254;138893;-72
2024/03/02 01:11:00;;;;;;;56.90;38.90;;;;;;;6.36;93.08;99771.52;103234;1256;111235;-70
2024/03/02 01:13:28;;;;;;;52.10;37.30;;;;;;;6.36;93.03;99763.24;103166;1254;107536;-70
2024/03/02 01:15:55;;;;;;;52.20;36.80;;;;;;;6.35;93.25;99759.98;103143;1256;139025;-71
2024/03/02 01:18:23;;;;;;;59.30;38.40;;;;;;;6.32;92.99;99764.38;103236;1254;107347;-70
2024/03/02 01:20:51;;;;;;;58.30;38.70;;;;;;;6.31;93.21;99762.66;103282;1255;138636;-74
2024/03/02 01:23:19;;;;;;;57.70;37.10;;;;;;;6.29;93.07;99765.13;103152;1256;111557;-74
2024/03/02 01:25:46;;;;;;;54.00;38.10;;;;;;;6.27;93.38;99764.81;103180;1256;107158;-72
2024/03/02 01:28:13;;;;;;;54.60;38.30;;;;;;;6.24;93.36;99764.36;103230;1254;97793;-70
2024/03/02 01:30:40;;;;;;;54.80;38.80;;;;;;;6.23;93.45;99764.57;103162;1258;107653;-72
2024/03/02 01:33:07;;;;;;;52.50;37.40;;;;;;;6.23;93.23;99756.98;103090;1254;141511;-72
2024/03/02 01:35:35;;;;;;;56.10;37.50;;;;;;;6.22;93.32;99763.04;103310;1257;111575;-72
2024/03/02 01:38:02;;;;;;;52.40;37.10;;;;;;;6.21;93.34;99755.30;103132;1254;140126;-72
2024/03/02 01:40:29;;;;;;;55.60;37.90;;;;;;;6.20;93.22;99753.24;103350;1253;99481;-72
2024/03/02 01:42:58;;;;;;;57.30;38.40;;;;;;;6.20;93.16;99750.48;103293;1253;107425;-73
2024/03/02 01:45:25;;;;;;;55.20;37.20;;;;;;;6.20;93.69;99751.52;103223;1254;138539;-72
2024/03/02 01:47:53;;;;;;;54.20;37.80;;;;;;;6.17;93.64;99746.07;103345;1253;111125;-70
2024/03/02 01:50:28;;;;;;;54.40;38.90;;;;;;;6.13;93.54;99739.93;103136;1253;139064;-71
2024/03/02 01:52:55;;;;;;;53.90;37.60;;;;;;;6.13;93.49;99741.67;103491;1254;97800;-71
2024/03/02 01:55:22;;;;;;;52.50;38.10;;;;;;;6.11;93.85;99744.31;103320;1257;107556;-69
2024/03/02 01:57:50;;;;;;;54.50;37.40;;;;;;;6.09;94.13;99745.54;103211;1253;138431;-73
2024/03/02 02:00:19;;;;;;;58.90;39.50;;;;;;;6.05;94.26;99740.95;103298;1253;111922;-72
2024/03/02 02:02:46;;;;;;;56.30;38.70;;;;;;;6.03;94.03;99734.27;103498;1253;138407;-72
2024/03/02 02:05:13;;;;;;;55.30;38.00;;;;;;;6.03;94.52;99741.70;103285;1257;97869;-70
2024/03/02 02:07:41;;;;;;;54.60;37.40;;;;;;;6.00;94.68;99741.59;103282;1253;107832;-71
2024/03/02 02:10:09;;;;;;;53.90;37.50;;;;;;;5.96;95.13;99742.02;103209;1257;138149;-73
2024/03/02 02:12:36;;;;;;;54.10;38.40;;;;;;;5.94;94.95;99744.49;103303;1253;110805;-72
2024/03/02 02:15:04;;;;;;;58.60;40.40;;;;;;;5.94;94.78;99745.36;103144;1257;138334;-72
2024/03/02 02:17:31;;;;;;;54.70;38.00;;;;;;;5.92;94.90;99741.08;104542;1258;96215;-71
2024/03/02 02:19:58;;;;;;;54.50;37.40;;;;;;;5.93;94.96;99736.92;103363;1254;138571;-70
2024/03/02 02:22:25;;;;;;;51.70;36.60;;;;;;;5.93;94.92;99733.83;103196;1254;97830;-70
2024/03/02 02:24:52;;;;;;;52.50;37.30;;;;;;;5.93;95.04;99734.17;103238;1254;111242;-70
2024/03/02 02:27:19;;;;;;;53.60;36.90;;;;;;;5.92;95.02;99734.17;103058;1255;139004;-69
2024/03/02 02:29:46;;;;;;;52.20;37.10;;;;;;;5.91;94.93;99730.73;103183;1256;99477;-70
2024/03/02 02:32:13;;;;;;;56.70;38.80;;;;;;;5.91;95.02;99731.42;103146;1258;138587;-70
2024/03/02 02:34:40;;;;;;;50.70;36.40;;;;;;;5.91;95.01;99736.09;103199;1258;97766;-73
2024/03/02 02:37:07;;;;;;;52.70;37.30;;;;;;;5.88;95.56;99730.78;103223;1254;109373;-70
2024/03/02 02:39:34;;;;;;;55.90;38.10;;;;;;;5.87;95.44;99724.75;103596;1256;138318;-70
2024/03/02 02:42:02;;;;;;;53.70;36.50;;;;;;;5.86;95.78;99727.88;103268;1254;97896;-68
2024/03/02 02:44:29;;;;;;;49.20;36.70;;;;;;;5.85;95.66;99721.02;103464;1253;140167;-72
2024/03/02 02:46:57;;;;;;;53.40;37.50;;;;;;;5.83;95.66;99717.27;103287;1254;97805;-72
2024/03/02 02:49:23;;;;;;;54.60;37.40;;;;;;;5.82;95.81;99719.68;103236;1254;110827;-72
2024/03/02 02:51:50;;;;;;;53.70;38.20;;;;;;;5.82;95.95;99716.08;103029;1258;138320;-69
2024/03/02 02:54:18;;;;;;;53.60;37.20;;;;;;;5.81;96.24;99714.03;103322;1254;98143;-69
2024/03/02 02:56:45;;;;;;;53.10;37.10;;;;;;;5.80;96.17;99711.30;103227;1256;138329;-69
2024/03/02 02:59:12;;;;;;;55.00;37.10;;;;;;;5.79;95.98;99713.05;103395;1258;97938;-71
2024/03/02 03:01:39;;;;;;;53.80;37.00;;;;;;;5.78;96.09;99710.82;103294;1255;112166;-71
2024/03/02 03:04:06;;;;;;;53.50;37.00;;;;;;;5.77;96.47;99714.30;103103;1258;138167;-72
2024/03/02 03:06:33;;;;;;;51.30;37.80;;;;;;;5.75;96.01;99711.05;102877;1254;1003525;-69
2024/03/02 03:09:00;;;;;;;55.50;37.60;;;;;;;5.74;96.25;99710.20;103173;1256;139137;-69
2024/03/02 03:11:27;;;;;;;52.40;36.80;;;;;;;5.72;96.30;99707.14;103232;1254;97804;-71
2024/03/02 03:13:55;;;;;;;50.80;36.40;;;;;;;5.69;96.71;99702.36;103051;1254;138328;-72
2024/03/02 03:16:22;;;;;;;51.00;37.00;;;;;;;5.68;96.86;99706.71;103099;1258;107996;-72
2024/03/02 03:18:51;;;;;;;51.40;37.50;;;;;;;5.65;97.08;99701.77;103201;1258;97796;-73
2024/03/02 03:21:18;;;;;;;54.80;36.80;;;;;;;5.63;97.50;99706.14;103798;1255;138291;-70
2024/03/02 03:23:45;;;;;;;50.30;36.30;;;;;;;5.62;96.99;99703.90;103083;1254;97700;-73
2024/03/02 03:26:13;;;;;;;49.60;35.10;;;;;;;5.61;97.07;99705.65;103037;1255;139615;-69
2024/03/02 03:28:40;;;;;;;48.60;35.60;;;;;;;5.59;97.27;99703.98;103156;1256;106671;-69
2024/03/02 03:31:07;;;;;;;53.30;35.50;;;;;;;5.59;97.31;99700.02;103268;1256;98336;-72
2024/03/02 03:33:34;;;;;;;49.70;36.20;;;;;;;5.59;97.45;99705.20;103059;1256;138587;-71
2024/03/02 03:36:03;;;;;;;55.50;35.90;;;;;;;5.57;97.47;99701.26;103209;1258;97780;-73
2024/03/02 03:38:30;;;;;;;47.60;35.30;;;;;;;5.57;97.11;99701.95;103152;1257;138381;-72
2024/03/02 03:40:57;;;;;;;51.20;34.80;;;;;;;5.57;97.60;99703.66;103196;1256;107143;-68
2024/03/02 03:43:24;;;;;;;52.30;35.80;;;;;;;5.55;97.66;99704.05;103360;1254;98458;-69
2024/03/02 03:45:51;;;;;;;49.00;35.20;;;;;;;5.55;97.39;99705.08;103150;1255;138798;-70
2024/03/02 03:48:18;;;;;;;49.20;34.80;;;;;;;5.53;97.57;99702.70;103316;1254;97769;-71
2024/03/02 03:50:45;;;;;;;50.00;35.00;;;;;;;5.52;97.62;99701.17;103266;1256;138194;-71
2024/03/02 03:53:14;;;;;;;51.60;36.00;;;;;;;5.51;97.41;99702.58;103248;1255;107195;-72
2024/03/02 03:55:41;;;;;;;49.40;35.70;;;;;;;5.50;97.52;99697.07;103274;1258;97827;-71
2024/03/02 03:58:08;;;;;;;48.10;34.90;;;;;;;5.47;98.10;99690.92;103159;1256;138343;-73
2024/03/02 04:00:35;;;;;;;50.20;34.80;;;;;;;5.45;98.13;99694.40;103195;1255;97927;-74
2024/03/02 04:03:02;;;;;;;48.00;33.90;;;;;;;5.45;97.93;99695.80;103080;1258;138312;-73
2024/03/02 04:05:29;;;;;;;53.30;36.70;;;;;;;5.43;98.34;99696.53;103170;1255;107543;-70
2024/03/02 04:07:55;;;;;;;50.80;35.00;;;;;;;5.40;98.76;99693.49;103141;1256;138484;-71
2024/03/02 04:10:24;;;;;;;49.30;35.10;;;;;;;5.39;98.85;99690.58;100185;1255;2003071;-73
2024/03/02 04:12:51;;;;;;;49.60;35.70;;;;;;;5.37;98.56;99695.59;103096;1254;97934;-72
2024/03/02 04:15:19;;;;;;;53.00;35.40;;;;;;;5.37;98.31;99699.91;103163;1256;138203;-73
2024/03/02 04:17:46;;;;;;;49.50;36.00;;;;;;;5.36;98.94;99703.55;103199;1256;107583;-74
2024/03/02 04:20:14;;;;;;;51.80;35.40;;;;;;;5.35;98.83;99702.70;103100;1258;138477;-72
2024/03/02 04:22:41;;;;;;;51.60;36.00;;;;;;;5.33;99.03;99711.20;103149;1258;108675;-71
2024/03/02 04:25:09;;;;;;;53.80;35.80;;;;;;;5.31;98.54;99705.20;103105;1256;97715;-71
2024/03/02 04:27:36;;;;;;;54.20;35.50;;;;;;;5.32;98.87;99707.92;103006;1258;139134;-72
2024/03/02 04:30:03;;;;;;;53.00;37.10;;;;;;;5.32;99.23;99709.49;103097;1258;108037;-71
2024/03/02 04:32:31;;;;;;;54.00;36.60;;;;;;;5.31;99.33;99717.62;102935;1255;138626;-72
2024/03/02 04:34:58;;;;;;;52.10;36.10;;;;;;;5.30;99.31;99716.27;103174;1256;108728;-71
2024/03/02 04:37:25;;;;;;;55.30;36.70;;;;;;;5.30;99.45;99706.44;103214;1256;98165;-71
2024/03/02 04:39:52;;;;;;;51.60;35.90;;;;;;;5.29;99.79;99707.33;103136;1254;138488;-70
2024/03/02 04:42:20;;;;;;;53.40;37.00;;;;;;;5.28;99.65;99707.52;103296;1254;107264;-71
2024/03/02 04:44:47;;;;;;;52.90;37.10;;;;;;;5.26;99.99;99714.27;103197;1256;138364;-70
2024/03/02 04:47:14;;;;;;;51.80;35.50;;;;;;;5.24;99.65;99704.33;103199;1256;107799;-70
2024/03/02 04:49:41;;;;;;;50.50;34.80;;;;;;;5.24;99.22;99698.80;101641;1256;2003658;-70
2024/03/02 04:52:08;;;;;;;53.40;35.70;;;;;;;5.25;99.36;99703.10;103176;1255;138365;-70
2024/03/02 04:55:09;;;;;;;52.90;35.80;;;;;;;5.26;99.46;99709.80;103105;1256;105624;-70
2024/03/02 04:57:23;;;;;;;55.20;37.40;;;;;;;5.26;99.27;99701.36;103423;1256;138482;-69
2024/03/02 04:59:50;;;;;;;52.10;35.90;;;;;;;5.25;99.59;99706.02;103138;1256;108032;-70
2024/03/02 05:02:17;;;;;;;51.60;35.90;;;;;;;5.21;99.67;99693.52;102862;1260;138774;-70
2024/03/02 05:04:44;;;;;;;51.70;35.20;;;;;;;5.23;99.87;99705.20;103165;1254;110026;-69
2024/03/02 05:07:11;;;;;;;52.60;35.60;;;;;;;5.22;99.85;99706.79;101647;1256;1015616;-69
2024/03/02 05:09:38;;;;;;;51.60;35.00;;;;;;;5.20;99.59;99701.46;102968;1256;138606;-70
2024/03/02 05:14:52;;;;;;;55.00;36.20;;;;;;;5.20;99.79;99712.48;104342;1258;138513;-70
2024/03/02 05:17:19;;;;;;;52.70;36.00;;;;;;;5.19;99.67;99720.08;103369;1257;111468;-70
2024/03/02 05:19:46;;;;;;;53.00;35.70;;;;;;;5.22;99.72;99721.77;103064;1256;106800;-70
2024/03/02 05:22:13;;;;;;;52.20;34.70;;;;;;;5.23;99.68;99720.54;103012;1254;138219;-71
2024/03/02 05:24:40;;;;;;;51.00;35.10;;;;;;;5.23;99.62;99720.90;103064;1258;108458;-72
2024/03/02 05:27:08;;;;;;;50.40;34.10;;;;;;;5.23;99.63;99725.54;103167;1256;138611;-70
2024/03/02 05:29:34;;;;;;;51.40;34.10;;;;;;;5.24;99.51;99732.77;103133;1256;111819;-71
2024/03/02 05:32:01;;;;;;;53.10;34.90;;;;;;;5.25;99.51;99730.84;103023;1254;138707;-71
2024/03/02 05:34:29;;;;;;;50.30;33.60;;;;;;;5.26;99.85;99738.75;103196;1256;97916;-71
2024/03/02 05:36:57;;;;;;;50.00;33.20;;;;;;;5.26;99.77;99742.89;103089;1258;107831;-70
2024/03/02 05:39:24;;;;;;;48.50;33.10;;;;;;;5.26;99.70;99739.96;102979;1258;138353;-71
2024/03/02 05:41:51;;;;;;;50.30;32.80;;;;;;;5.26;99.97;99738.23;103138;1256;111355;-71
2024/03/02 05:44:19;;;;;;;45.30;32.20;;;;;;;5.25;100.00;99736.17;103057;1258;138932;-70
2024/03/02 05:46:46;;;;;;;48.30;33.00;;;;;;;5.26;99.71;99739.29;103166;1258;97830;-70
2024/03/02 05:49:13;;;;;;;47.70;32.40;;;;;;;5.27;100.00;99744.08;103154;1256;107713;-70
2024/03/02 05:51:40;;;;;;;51.50;33.60;;;;;;;5.27;99.91;99747.02;103013;1258;138727;-70
2024/03/02 05:54:07;;;;;;;53.40;32.80;;;;;;;5.29;99.93;99747.65;103105;1258;112250;-70
2024/03/02 05:56:34;;;;;;;49.80;33.40;;;;;;;5.30;99.96;99747.80;103013;1256;138576;-70
2024/03/02 05:59:12;;;;;;;47.20;32.70;;;;;;;5.32;99.87;99754.50;103107;1256;97822;-71
2024/03/02 06:01:40;;;;;;;47.20;33.00;;;;;;;5.34;99.47;99749.27;103034;1256;107376;-70
2024/03/02 06:04:07;;;;;;;48.60;33.00;;;;;;;5.38;99.61;99748.70;103072;1256;138184;-76
2024/03/02 06:06:34;;;;;;;48.20;32.30;;;;;;;5.40;99.73;99752.10;103229;1256;111318;-70
2024/03/02 06:09:02;;;;;;;47.60;33.20;;;;;;;5.41;99.64;99752.95;103087;1258;138622;-70
2024/03/02 06:11:29;;;;;;;47.40;31.80;;;;;;;5.42;99.62;99757.42;103188;1257;97917;-71
2024/03/02 06:13:56;;;;;;;50.00;32.60;;;;;;;5.41;99.46;99756.05;103018;1257;138484;-71
2024/03/02 06:16:23;;;;;;;52.10;32.50;;;;;;;5.42;99.41;99759.13;103074;1256;97675;-71
2024/03/02 06:18:50;;;;;;;49.30;32.10;;;;;;;5.44;99.80;99759.77;102946;1256;112745;-71
2024/03/02 06:21:18;;;;;;;49.00;32.30;;;;;;;5.43;99.75;99757.92;102995;1258;138607;-71
2024/03/02 06:23:45;;;;;;;49.60;32.70;;;;;;;5.44;99.66;99760.48;102997;1258;98183;-70
2024/03/02 06:26:12;;;;;;;49.50;33.50;;;;;;;5.46;99.81;99766.13;103046;1257;138265;-71
2024/03/02 06:28:39;;;;;;;49.80;31.00;;;;;;;5.48;99.63;99766.62;103108;1254;97995;-71
2024/03/02 06:31:06;;;;;;;52.90;32.50;;;;;;;5.49;99.70;99772.10;103137;1258;111428;-71
2024/03/02 06:33:33;;;;;;;45.70;31.30;;;;;;;5.50;99.82;99773.64;102828;1256;138996;-71
2024/03/02 06:36:00;;;;;;;42.00;29.80;;;;;;;5.50;99.98;99777.08;103133;1258;97804;-70
2024/03/02 06:38:27;;;;;;;46.90;31.70;;;;;;;5.49;99.98;99773.30;102909;1256;138434;-70
2024/03/02 06:40:55;;;;;;;44.30;30.40;;;;;;;5.52;99.65;99776.02;103017;1254;97913;-71
2024/03/02 06:43:23;;;;;;;46.60;31.80;;;;;;;5.53;99.73;99782.04;103088;1258;110638;-73
2024/03/02 06:45:50;;;;;;;44.70;29.90;;;;;;;5.56;99.70;99782.48;102935;1256;139459;-71
2024/03/02 06:48:19;;;;;;;44.70;30.40;;;;;;;5.60;99.59;99786.23;103130;1255;98639;-70
2024/03/02 06:50:47;;;;;;;43.50;29.70;;;;;;;5.62;99.78;99790.66;102988;1258;138448;-71
2024/03/02 06:53:14;;;;;;;40.70;29.30;;;;;;;5.64;99.69;99788.39;103153;1256;99048;-74
2024/03/02 06:55:41;;;;;;;44.00;30.70;;;;;;;5.65;99.59;99781.11;103101;1256;111454;-73
2024/03/02 06:58:08;;;;;;;46.20;30.00;;;;;;;5.67;99.63;99783.83;102961;1256;138380;-70
2024/03/02 07:00:35;;;;;;;43.40;29.10;;;;;;;5.69;99.55;99787.23;103007;1258;97792;-71
2024/03/02 07:03:02;;;;;;;41.50;29.10;;;;;;;5.71;99.71;99789.42;102973;1258;139171;-70
2024/03/02 07:05:29;;;;;;;44.90;29.30;;;;;;;5.71;99.36;99785.45;103144;1254;98004;-70
2024/03/02 07:07:56;;;;;;;43.90;28.90;;;;;;;5.73;99.36;99782.14;103040;1258;138672;-68
2024/03/02 07:10:23;;;;;;;41.40;28.10;;;;;;;5.76;99.29;99784.35;103162;1256;108317;-69
2024/03/02 07:12:50;;;;;;;42.70;28.50;;;;;;;5.79;99.33;99779.98;103265;1256;98299;-69
2024/03/02 07:15:43;;;;;;;45.60;27.90;;;;;;;5.81;99.19;99781.48;103079;1254;138230;-69
2024/03/02 07:18:10;;;;;;;42.80;28.30;;;;;;;5.82;99.00;99777.32;103131;1258;97807;-70
2024/03/02 07:20:38;;;;;;;41.30;28.70;;;;;;;5.83;98.98;99784.88;103066;1258;138253;-69
2024/03/02 07:23:06;;;;;;;42.90;28.10;;;;;;;5.87;99.01;99789.46;103617;1256;107197;-69
2024/03/02 07:25:33;;;;;;;43.50;29.00;;;;;;;5.90;98.87;99788.73;103397;1257;97806;-72
2024/03/02 07:28:04;;;;;;;44.50;29.80;;;;;;;5.92;98.90;99795.79;103112;1257;139261;-71
2024/03/02 07:30:31;;;;;;;45.00;29.40;;;;;;;5.92;98.85;99798.70;103189;1254;97841;-71
2024/03/02 07:33:00;;;;;;;44.20;29.10;;;;;;;5.94;98.62;99795.92;103014;1256;138652;-71
2024/03/02 07:35:27;;;;;;;42.40;28.00;;;;;;;5.96;98.67;99793.64;103146;1256;105633;-71
2024/03/02 07:37:55;;;;;;;47.00;28.80;;;;;;;5.99;98.66;99794.77;103033;1254;138442;-71
2024/03/02 07:40:22;;;;;;;45.80;29.20;;;;;;;6.01;98.52;99794.39;103045;1255;107204;-72
2024/03/02 07:42:49;;;;;;;46.00;29.60;;;;;;;6.03;98.27;99793.64;102980;1254;97819;-72
2024/03/02 07:45:16;;;;;;;42.60;28.60;;;;;;;6.06;98.24;99792.38;102982;1256;138208;-71
2024/03/02 07:47:44;;;;;;;43.10;27.60;;;;;;;6.10;98.21;99791.61;103060;1258;107969;-71
2024/03/02 07:50:12;;;;;;;44.30;28.90;;;;;;;6.11;98.07;99795.57;102949;1256;141068;-72
2024/03/02 07:52:39;;;;;;;43.50;29.40;;;;;;;6.12;97.91;99802.29;103093;1256;107045;-71
2024/03/02 07:55:07;;;;;;;41.10;27.80;;;;;;;6.14;97.79;99803.45;103022;1256;97799;-72
2024/03/02 07:57:34;;;;;;;41.90;27.30;;;;;;;6.18;97.81;99803.86;102791;1256;1002965;-71
2024/03/02 08:00:01;;;;;;;41.80;26.70;;;;;;;6.22;97.70;99804.98;103076;1259;107887;-71
2024/03/02 08:02:37;;;;;;;41.10;27.10;;;;;;;6.26;97.32;99809.20;102993;1256;138481;-71
2024/03/02 08:05:05;;;;;;;44.60;27.10;;;;;;;6.30;97.32;99820.20;103045;1256;107867;-70
2024/03/02 08:07:32;;;;;;;44.10;28.10;;;;;;;6.34;97.17;99824.59;103045;1259;98131;-70
2024/03/02 08:09:59;;;;;;;46.00;28.30;;;;;;;6.36;97.05;99824.70;102869;1254;138477;-74
2024/03/02 08:12:27;;;;;;;43.90;27.60;;;;;;;6.35;96.79;99828.53;103000;1254;107983;-70
2024/03/02 08:14:54;;;;;;;41.90;27.30;;;;;;;6.39;97.43;99826.55;103004;1256;138398;-74
2024/03/02 08:17:21;;;;;;;44.20;27.40;;;;;;;6.50;97.55;99825.11;102901;1259;107536;-73
2024/03/02 08:19:49;;;;;;;41.00;27.50;;;;;;;6.56;97.00;99822.73;102987;1254;97665;-72
2024/03/02 08:22:16;;;;;;;40.40;26.40;;;;;;;6.60;96.61;99821.41;103162;1259;109937;-73
2024/03/02 08:24:43;;;;;;;49.40;27.20;;;;;;;6.63;96.26;99813.73;103167;1256;107904;-74
2024/03/02 08:27:10;;;;;;;42.20;27.30;;;;;;;6.65;96.19;99818.71;103090;1256;138743;-74
2024/03/02 08:29:37;;;;;;;45.50;27.20;;;;;;;6.69;96.08;99815.52;103188;1256;106960;-74
2024/03/02 08:32:05;;;;;;;43.10;26.70;;;;;;;6.71;95.74;99815.13;103083;1255;139573;-74
2024/03/02 08:34:32;;;;;;;43.10;25.90;;;;;;;6.74;95.47;99818.35;103381;1258;112412;-75
2024/03/02 08:36:59;;;;;;;39.90;26.00;;;;;;;6.76;95.54;99818.98;103097;1258;108176;-76
2024/03/02 08:39:26;;;;;;;43.20;26.20;;;;;;;6.76;95.23;99819.31;103050;1258;138330;-76
2024/03/02 08:41:53;;;;;;;39.70;26.50;;;;;;;6.76;95.02;99819.31;103170;1259;107984;-73
2024/03/02 08:44:20;;;;;;;40.20;26.40;;;;;;;6.77;94.95;99824.99;103089;1258;138582;-74
2024/03/02 08:46:47;;;;;;;41.80;26.60;;;;;;;6.80;95.19;99826.83;103061;1256;111462;-75
2024/03/02 08:49:14;;;;;;;45.20;27.60;;;;;;;6.79;94.83;99830.83;103036;1259;106699;-77
2024/03/02 08:51:41;;;;;;;42.20;25.90;;;;;;;6.78;94.85;99831.35;102946;1255;140438;-77
2024/03/02 08:54:08;;;;;;;42.90;26.80;;;;;;;6.77;94.99;99833.27;103127;1259;107892;-73
2024/03/02 08:56:36;;;;;;;40.90;26.50;;;;;;;6.79;95.01;99837.89;102332;1255;1002982;-74
2024/03/02 08:59:04;;;;;;;43.40;25.70;;;;;;;6.83;95.03;99833.67;103265;1258;111490;-73
2024/03/02 09:01:31;;;;;;;46.40;27.00;;;;;;;6.88;95.03;99835.81;103048;1256;108802;-82
2024/03/02 09:03:58;;;;;;;42.90;25.00;;;;;;;6.91;94.61;99833.31;103045;1262;138833;-79
